Etusivu
METAR-TAF:

METAR-TAF

Lentoasemat :

Bromman lentoasema

Tukholma, Ruotsi

Leveyspiiri: 59-21N, Pituuspiiri: 017-57E, korkeus merenpinnasta: 14 m

Tämänhetkinen sää

Tämä raportti tehtiin 28 minuuttia sitten, kello 23.50 UTC
Tuuli 7 kn idästä
Lämpötila 0°C
Kosteus 86%
Ilmanpaine 1034 hPa
Näkyvyys 10 km tai enemmän

METAR: ESSB 202350Z AUTO 09007KT 9999 OVC013/// 00/M02 Q1034

Aika: 01:18 (00:18 UTC)

Sääennuste

Tämä raportti tehtiin 5 tuntia ja 27 minuuttia sitten, kello 18.51 UTC
Ennuste voimassa 20. päivästä klo 18 UTC - 20. päivään klo 21 UTC
Tuuli 6 kn pohjoisesta
Näkyvyys 10 km tai enemmän
Hajonneita pilviä 1500 ft:n korkeudessa
Ajoittain
20. päivästä klo 18 UTC - 20. päivään klo 21 UTC
Hajonneita pilviä 800 ft:n korkeudessa

TAF: ESSB 201851Z 2018/2021 35006KT 9999 BKN015 TEMPO 2018/2021 BKN008

Säähavainnot ja -ennusteet yli 4000 lentoasemalta (METAR- ja TAF-raportit).

Käytössä olevat sääasemat on merkitty karttaan keltaisilla ja punaisilla pisteillä.

Aseta hiiri pisteen päälle nähdäksesi sääaseman nimen.

Klikkaa sitten nähdäksesi säähavainnot ja -ennusteet.

Kartan vaihtaminen: klikkaa mustalla rastilla varustettuja vihreitä pisteitä, niin voit zoomata sisään; viivalla varustettua vihreää pistettä, niin voit zoomata ulos tai vihreitä nuolia, niin pääset viereisille kartoille.


METAR-TAF: